Time;durP1;ratioP1;P1;durP2;ratioP2;P2;SDS_P1;SDS_P2;PMS_P1;PMS_P2;Temp;Humidity;BMP_temperature;BMP_pressure;BME280_temperature;BME280_humidity;BME280_pressure;Samples;Min_cycle;Max_cycle;Signal;HPM_P1;HPM_P2
2023/12/29 00:00:49;;;;;;;4.78;3.55;;;8.10;99.90;;;;;;5093020;28;20718;-76
2023/12/29 00:03:43;;;;;;;4.65;3.30;;;8.20;99.90;;;;;;5093988;28;20127;-83
2023/12/29 00:06:33;;;;;;;4.10;3.25;;;8.20;99.90;;;;;;5103342;28;20496;-81
2023/12/29 00:09:37;;;;;;;5.25;3.47;;;8.20;99.90;;;;;;5077970;28;20090;-80
2023/12/29 00:12:25;;;;;;;3.90;3.10;;;8.10;99.90;;;;;;5064246;28;20059;-83
2023/12/29 00:15:22;;;;;;;5.65;3.65;;;7.90;99.90;;;;;;5086664;28;20052;-77
2023/12/29 00:18:12;;;;;;;4.75;3.47;;;7.90;99.90;;;;;;5095251;28;20044;-82
2023/12/29 00:21:05;;;;;;;5.90;3.80;;;7.80;99.90;;;;;;5073851;28;20048;-81
2023/12/29 00:24:07;;;;;;;4.80;3.20;;;7.90;99.90;;;;;;5078137;28;20055;-82
2023/12/29 00:27:10;;;;;;;5.18;3.42;;;8.00;99.90;;;;;;5067487;28;20464;-81
2023/12/29 00:30:02;;;;;;;5.00;3.08;;;8.00;99.90;;;;;;5070141;28;20063;-80
2023/12/29 00:32:54;;;;;;;5.93;3.30;;;8.00;99.90;;;;;;5068621;28;20044;-83
2023/12/29 00:35:50;;;;;;;4.60;3.38;;;8.00;99.90;;;;;;5079592;28;20637;-81
2023/12/29 00:38:39;;;;;;;5.30;3.08;;;8.00;99.90;;;;;;5086734;28;20044;-80
2023/12/29 00:41:39;;;;;;;5.72;3.55;;;8.10;99.90;;;;;;5072453;28;20059;-82
2023/12/29 00:44:36;;;;;;;4.72;3.50;;;8.00;99.90;;;;;;5082144;28;20048;-82
2023/12/29 00:47:24;;;;;;;5.97;3.80;;;7.80;99.90;;;;;;5078767;28;20063;-79
2023/12/29 00:50:28;;;;;;;7.35;4.03;;;7.70;99.90;;;;;;5082358;28;20048;-81
2023/12/29 00:53:33;;;;;;;5.40;3.88;;;7.60;99.90;;;;;;5092253;28;20142;-80
2023/12/29 00:56:33;;;;;;;4.72;4.07;;;7.60;99.90;;;;;;5085877;28;20040;-80
2023/12/29 00:59:26;;;;;;;6.50;3.67;;;7.50;99.90;;;;;;5094581;28;20051;-83
2023/12/29 01:02:28;;;;;;;5.72;4.35;;;7.60;99.90;;;;;;5095803;28;20036;-78
2023/12/29 01:05:23;;;;;;;6.22;3.80;;;7.60;99.90;;;;;;5105843;28;20126;-78
2023/12/29 01:08:17;;;;;;;6.53;3.70;;;7.60;99.90;;;;;;5070336;28;20051;-80
2023/12/29 01:11:06;;;;;;;5.78;3.67;;;7.60;99.90;;;;;;5086005;28;20056;-82
2023/12/29 01:13:57;;;;;;;4.40;3.80;;;7.60;99.90;;;;;;5068947;28;20066;-81
2023/12/29 01:16:47;;;;;;;5.03;3.83;;;7.70;99.90;;;;;;5073683;28;20514;-80
2023/12/29 01:19:42;;;;;;;5.22;4.32;;;7.70;99.90;;;;;;5067235;28;20047;-80
2023/12/29 01:22:38;;;;;;;6.25;4.03;;;7.70;99.90;;;;;;5081812;28;20051;-80
2023/12/29 01:25:28;;;;;;;4.95;4.15;;;7.70;99.90;;;;;;5082442;28;20123;-79
2023/12/29 01:28:18;;;;;;;5.07;3.97;;;7.80;99.90;;;;;;5073568;28;20453;-79
2023/12/29 01:31:08;;;;;;;5.60;4.40;;;7.90;99.90;;;;;;5088176;28;20128;-82
2023/12/29 01:34:12;;;;;;;6.85;4.22;;;7.90;99.90;;;;;;5083452;28;20052;-77
2023/12/29 01:37:07;;;;;;;4.80;3.75;;;7.90;99.90;;;;;;5096828;28;20040;-75
2023/12/29 01:40:05;;;;;;;5.88;4.47;;;7.90;99.90;;;;;;5106216;28;20040;-76
2023/12/29 01:43:03;;;;;;;;;;;8.00;99.90;;;;;;5087556;28;20121;-77
2023/12/29 01:45:58;;;;;;;7.05;4.40;;;8.00;99.90;;;;;;5070704;28;19923;-79
2023/12/29 01:48:51;;;;;;;5.35;3.90;;;8.00;99.90;;;;;;5072845;28;20058;-81
2023/12/29 01:51:58;;;;;;;5.00;3.92;;;8.10;99.90;;;;;;5072772;28;20625;-83
2023/12/29 01:54:52;;;;;;;6.47;4.45;;;8.10;99.90;;;;;;5075244;28;20059;-83
2023/12/29 01:57:43;;;;;;;6.07;4.57;;;8.10;99.90;;;;;;5086725;28;20092;-82
2023/12/29 02:00:37;;;;;;;5.30;4.10;;;8.00;99.90;;;;;;5099609;28;20047;-81
2023/12/29 02:03:32;;;;;;;4.95;4.38;;;8.00;99.90;;;;;;5102316;28;20058;-78
2023/12/29 02:06:24;;;;;;;6.10;4.38;;;8.10;99.90;;;;;;5092352;28;20048;-81
2023/12/29 02:09:16;;;;;;;5.90;4.40;;;8.10;99.90;;;;;;5077570;28;20039;-82
2023/12/29 02:12:18;;;;;;;8.07;5.20;;;8.10;99.90;;;;;;5084669;28;20044;-82
2023/12/29 02:15:09;;;;;;;5.97;4.30;;;8.00;99.90;;;;;;5098173;28;20063;-81
2023/12/29 02:18:06;;;;;;;7.88;4.90;;;8.00;99.90;;;;;;5088847;28;20471;-82
2023/12/29 02:20:56;;;;;;;5.07;4.40;;;8.00;99.90;;;;;;5085029;28;20710;-79
2023/12/29 02:23:46;;;;;;;5.40;4.78;;;8.00;99.90;;;;;;5080799;28;20108;-77
2023/12/29 02:26:37;;;;;;;6.53;5.05;;;7.90;99.90;;;;;;5066753;28;20080;-80
2023/12/29 02:29:39;;;;;;;6.55;4.78;;;7.90;99.90;;;;;;5081531;28;20052;-79
2023/12/29 02:32:41;;;;;;;7.15;4.57;;;7.90;99.90;;;;;;5072018;28;20435;-84
2023/12/29 02:35:57;;;;;;;7.07;5.20;;;7.90;99.90;;;;;;5088092;28;20051;-80
2023/12/29 02:38:51;;;;;;;6.38;4.97;;;7.80;99.90;;;;;;5059468;28;20075;-82
2023/12/29 02:41:41;;;;;;;13.85;5.95;;;7.70;99.90;;;;;;5085541;28;20039;-81
2023/12/29 02:44:35;;;;;;;9.20;5.15;;;7.80;99.90;;;;;;5086131;28;20044;-81
2023/12/29 02:47:34;;;;;;;6.07;5.18;;;7.80;99.90;;;;;;5087873;28;20051;-79
2023/12/29 02:50:30;;;;;;;7.25;5.65;;;7.80;99.90;;;;;;5072820;28;20056;-80
2023/12/29 02:53:27;;;;;;;9.45;5.25;;;7.70;99.90;;;;;;5086049;28;20044;-81
2023/12/29 02:56:58;;;;;;;;;;;;;;;;;;;;;
2023/12/29 03:00:12;;;;;;;7.43;5.38;;;7.50;99.90;;;;;;5090538;28;20048;-82
2023/12/29 03:03:12;;;;;;;10.73;6.15;;;7.50;99.90;;;;;;5074034;28;20095;-78
2023/12/29 03:06:06;;;;;;;8.80;6.30;;;7.40;99.90;;;;;;5096035;28;20571;-79
2023/12/29 03:08:55;;;;;;;9.43;5.60;;;7.40;99.90;;;;;;5053322;28;20401;-81
2023/12/29 03:11:48;;;;;;;11.70;6.40;;;7.40;99.90;;;;;;5065071;28;20131;-79
2023/12/29 03:14:49;;;;;;;8.25;5.43;;;7.50;99.90;;;;;;5068403;28;20076;-80
2023/12/29 03:18:00;;;;;;;10.50;5.70;;;7.50;99.90;;;;;;5067522;28;20040;-80
2023/12/29 03:20:56;;;;;;;9.93;5.85;;;7.50;99.90;;;;;;5057607;28;20050;-84
2023/12/29 03:23:53;;;;;;;7.50;5.70;;;7.60;99.90;;;;;;5049641;28;20036;-80
2023/12/29 03:26:57;;;;;;;6.88;5.28;;;7.60;99.90;;;;;;5068427;28;20064;-82
2023/12/29 03:29:50;;;;;;;9.93;5.72;;;7.60;99.90;;;;;;5052740;28;20060;-81
2023/12/29 03:32:48;;;;;;;6.53;5.22;;;7.60;99.90;;;;;;5062033;28;20641;-80
2023/12/29 03:35:46;;;;;;;;;;;7.60;99.90;;;;;;5059505;28;20270;-81
2023/12/29 03:38:39;;;;;;;8.88;5.05;;;7.60;99.90;;;;;;5090759;28;19971;-77
2023/12/29 03:41:34;;;;;;;7.93;5.65;;;7.60;99.90;;;;;;5068018;28;20119;-78
2023/12/29 03:44:28;;;;;;;7.18;5.18;;;7.60;99.90;;;;;;5062973;28;20119;-81
2023/12/29 03:47:24;;;;;;;6.18;5.07;;;7.50;99.90;;;;;;5067416;28;20129;-79
2023/12/29 03:50:23;;;;;;;7.80;5.95;;;7.40;99.90;;;;;;5047435;28;20538;-82
2023/12/29 03:53:16;;;;;;;7.53;5.80;;;7.30;99.90;;;;;;5060887;28;20049;-82
2023/12/29 03:56:20;;;;;;;10.98;6.10;;;7.20;99.90;;;;;;5066353;28;20169;-82
2023/12/29 03:59:20;;;;;;;9.00;5.88;;;7.20;99.90;;;;;;5071865;28;20054;-79
2023/12/29 04:02:14;;;;;;;7.80;5.72;;;7.20;99.90;;;;;;5050901;28;20055;-79
2023/12/29 04:05:09;;;;;;;8.10;6.68;;;7.20;99.90;;;;;;5050787;28;20079;-81
2023/12/29 04:08:04;;;;;;;8.30;6.07;;;7.20;99.90;;;;;;5050463;28;20032;-81
2023/12/29 04:11:08;;;;;;;6.28;5.43;;;7.20;99.90;;;;;;5062792;28;20412;-81
2023/12/29 04:14:00;;;;;;;7.22;5.85;;;7.30;99.90;;;;;;5042155;28;20052;-81
2023/12/29 04:16:53;;;;;;;7.47;6.20;;;7.30;99.90;;;;;;5055237;28;20101;-79
2023/12/29 04:19:44;;;;;;;6.20;5.05;;;7.30;99.90;;;;;;5066636;28;20581;-80
2023/12/29 04:22:36;;;;;;;6.68;5.35;;;7.40;99.90;;;;;;5057418;28;20049;-82
2023/12/29 04:25:30;;;;;;;6.60;5.15;;;7.40;99.90;;;;;;5060719;28;20065;-81
2023/12/29 04:28:24;;;;;;;6.25;5.13;;;7.40;99.90;;;;;;5051823;28;20041;-80
2023/12/29 04:31:23;;;;;;;7.40;5.10;;;7.40;99.90;;;;;;5056801;28;20037;-79
2023/12/29 04:34:24;;;;;;;8.60;5.88;;;7.50;99.90;;;;;;5063218;28;20051;-80
2023/12/29 04:37:15;;;;;;;7.68;5.88;;;7.40;99.90;;;;;;5058969;28;20100;-80
2023/12/29 04:40:13;;;;;;;10.18;5.63;;;7.40;99.90;;;;;;5060274;28;20041;-79
2023/12/29 04:43:18;;;;;;;7.22;5.60;;;7.40;99.90;;;;;;5055469;28;20049;-76
2023/12/29 04:46:11;;;;;;;9.02;6.00;;;7.30;99.90;;;;;;5047752;28;20068;-79
2023/12/29 04:49:02;;;;;;;;;;;7.30;99.90;;;;;;5058804;28;20567;-80
2023/12/29 04:51:49;;;;;;;7.53;5.35;;;7.30;99.90;;;;;;5048423;28;20392;-80
2023/12/29 04:54:51;;;;;;;7.50;6.32;;;7.30;99.90;;;;;;5074828;28;20044;-79
2023/12/29 04:57:53;;;;;;;7.75;6.03;;;7.30;99.90;;;;;;5050699;28;20036;-80
2023/12/29 05:01:05;;;;;;;8.47;6.13;;;7.20;99.90;;;;;;5056436;28;20049;-77
2023/12/29 05:04:08;;;;;;;10.10;6.43;;;7.20;99.90;;;;;;5064104;28;20283;-80
2023/12/29 05:10:27;;;;;;;9.10;6.50;;;7.30;99.90;;;;;;5062828;28;20479;-81
2023/12/29 05:13:18;;;;;;;7.50;6.68;;;7.30;99.90;;;;;;5056113;28;20055;-82
2023/12/29 05:16:13;;;;;;;;;;;7.30;99.90;;;;;;5068927;28;20037;-82
2023/12/29 05:19:26;;;;;;;9.18;6.53;;;7.30;99.90;;;;;;5068813;28;19927;-79
2023/12/29 05:22:22;;;;;;;8.52;6.18;;;7.30;99.90;;;;;;5064646;28;20418;-81
2023/12/29 05:25:14;;;;;;;8.25;6.13;;;7.40;99.90;;;;;;5062932;28;20052;-79
2023/12/29 05:28:06;;;;;;;9.35;5.22;;;7.40;99.90;;;;;;5070164;28;20484;-79
2023/12/29 05:31:04;;;;;;;9.50;6.03;;;7.40;99.90;;;;;;5056248;28;20037;-80
2023/12/29 05:33:59;;;;;;;7.90;5.60;;;7.40;99.90;;;;;;5060981;28;20508;-82
2023/12/29 05:37:03;;;;;;;9.40;5.95;;;7.40;99.90;;;;;;5058821;28;20067;-81
2023/12/29 05:40:00;;;;;;;6.10;5.50;;;7.50;99.90;;;;;;5073720;28;20122;-79
2023/12/29 05:43:00;;;;;;;9.38;5.95;;;7.50;99.90;;;;;;5051690;28;20060;-81
2023/12/29 05:45:52;;;;;;;8.35;5.80;;;7.60;99.90;;;;;;5059593;28;20040;-77
2023/12/29 05:48:52;;;;;;;7.78;5.82;;;7.60;99.90;;;;;;5051910;28;20497;-79
2023/12/29 05:51:52;;;;;;;10.50;6.55;;;7.60;99.90;;;;;;5069140;28;20049;-79
2023/12/29 05:54:45;;;;;;;10.68;6.38;;;7.60;99.90;;;;;;5057760;28;20497;-83
2023/12/29 05:57:56;;;;;;;9.85;6.00;;;7.60;99.90;;;;;;5077955;28;20044;-81
2023/12/29 06:01:04;;;;;;;7.78;5.80;;;7.60;99.90;;;;;;5065868;28;20052;-80
2023/12/29 06:03:57;;;;;;;12.18;6.47;;;7.60;99.90;;;;;;5067974;28;20047;-81
2023/12/29 06:06:57;;;;;;;12.53;6.17;;;7.50;99.90;;;;;;5071988;28;20568;-83
2023/12/29 06:09:45;;;;;;;10.68;5.90;;;7.50;99.90;;;;;;5064441;28;20330;-78
2023/12/29 06:12:42;;;;;;;6.43;5.75;;;7.50;99.90;;;;;;5059157;28;20045;-78
2023/12/29 06:15:52;;;;;;;9.85;6.72;;;7.50;99.90;;;;;;5078623;28;20100;-81
2023/12/29 06:18:54;;;;;;;7.93;6.47;;;7.60;99.90;;;;;;5077164;28;20072;-79
2023/12/29 06:21:49;;;;;;;10.48;6.40;;;7.50;99.90;;;;;;5057495;28;20060;-82
2023/12/29 06:24:52;;;;;;;10.80;6.18;;;7.50;99.90;;;;;;5060099;28;20071;-80
2023/12/29 06:27:53;;;;;;;9.63;6.68;;;7.50;99.90;;;;;;5046470;28;20033;-82
2023/12/29 06:30:44;;;;;;;8.77;5.55;;;7.50;99.90;;;;;;5055365;28;20510;-80
2023/12/29 06:33:46;;;;;;;11.20;6.13;;;7.60;99.90;;;;;;5066322;28;20062;-79
2023/12/29 06:36:50;;;;;;;6.88;5.97;;;7.60;99.90;;;;;;5067679;28;20067;-78
2023/12/29 06:39:56;;;;;;;10.77;7.35;;;7.60;99.90;;;;;;5090305;28;20286;-78
2023/12/29 06:42:50;;;;;;;7.40;5.85;;;7.60;99.90;;;;;;5089569;28;20047;-77
2023/12/29 06:45:56;;;;;;;8.18;6.70;;;7.60;99.90;;;;;;5087669;28;20060;-79
2023/12/29 06:49:02;;;;;;;;;;;7.60;99.90;;;;;;5087015;28;20054;-78
2023/12/29 06:52:36;;;;;;;;;;;;;;;;;;;;;
2023/12/29 06:55:41;;;;;;;9.02;5.97;;;7.60;99.90;;;;;;5093124;28;20059;-80
2023/12/29 06:58:39;;;;;;;8.27;6.10;;;7.50;99.90;;;;;;5084356;28;20043;-77
2023/12/29 07:01:38;;;;;;;;;;;7.50;99.90;;;;;;5066604;28;20040;-82
2023/12/29 07:04:42;;;;;;;9.35;6.20;;;7.50;99.90;;;;;;5068983;28;19931;-82
2023/12/29 07:07:41;;;;;;;8.20;5.97;;;7.50;99.90;;;;;;5056692;28;20060;-82
2023/12/29 07:10:33;;;;;;;8.32;6.40;;;7.50;99.90;;;;;;5051104;28;20045;-82
2023/12/29 07:13:33;;;;;;;6.63;5.35;;;7.50;99.90;;;;;;5048678;28;20774;-79
2023/12/29 07:16:42;;;;;;;8.20;6.25;;;7.50;99.90;;;;;;5068632;28;20044;-80
2023/12/29 07:19:55;;;;;;;5.80;5.20;;;7.60;99.90;;;;;;5054405;28;20126;-81
2023/12/29 07:22:59;;;;;;;9.23;5.85;;;7.60;99.90;;;;;;5044662;28;20044;-81
2023/12/29 07:25:56;;;;;;;7.30;5.55;;;7.60;99.90;;;;;;5057791;28;20048;-79
2023/12/29 07:29:07;;;;;;;11.90;6.03;;;7.60;99.90;;;;;;5054813;28;20053;-83
2023/12/29 07:32:05;;;;;;;8.32;5.75;;;7.60;99.90;;;;;;5053731;28;20049;-79
2023/12/29 07:34:52;;;;;;;10.45;6.57;;;7.60;99.90;;;;;;5047715;28;20063;-83
2023/12/29 07:37:47;;;;;;;8.27;6.32;;;7.60;99.90;;;;;;5046716;28;20155;-83
2023/12/29 07:40:37;;;;;;;7.15;5.97;;;7.60;99.90;;;;;;5055230;28;20687;-83
2023/12/29 07:43:36;;;;;;;6.82;5.65;;;7.60;99.90;;;;;;5050448;28;20434;-78
2023/12/29 07:46:31;;;;;;;7.25;5.65;;;7.60;99.90;;;;;;5046839;28;20041;-82
2023/12/29 07:49:26;;;;;;;9.20;6.40;;;7.60;99.90;;;;;;5052479;28;20045;-78
2023/12/29 07:52:26;;;;;;;;;;;7.70;99.90;;;;;;5056272;28;20044;-80
2023/12/29 07:55:18;;;;;;;7.88;6.07;;;7.60;99.90;;;;;;5060120;28;19928;-82
2023/12/29 07:58:15;;;;;;;8.82;6.50;;;7.70;99.90;;;;;;5059211;28;20060;-81
2023/12/29 08:01:16;;;;;;;9.70;6.93;;;7.70;99.90;;;;;;5062603;28;20681;-76
2023/12/29 08:04:23;;;;;;;12.85;6.72;;;7.70;99.90;;;;;;5055686;28;20052;-78
2023/12/29 08:07:14;;;;;;;11.27;6.70;;;7.70;99.90;;;;;;5051924;28;20044;-80
2023/12/29 08:10:06;;;;;;;8.27;6.60;;;7.70;99.90;;;;;;5042641;28;20124;-79
2023/12/29 08:12:54;;;;;;;8.35;6.43;;;7.70;99.90;;;;;;5063244;28;20052;-80
2023/12/29 08:15:45;;;;;;;9.65;7.70;;;7.60;99.90;;;;;;5069910;28;20530;-77
2023/12/29 08:18:35;;;;;;;10.27;7.03;;;7.70;99.90;;;;;;5059324;28;20051;-79
2023/12/29 08:21:23;;;;;;;10.30;6.35;;;7.70;99.90;;;;;;5073876;28;20059;-79
2023/12/29 08:24:12;;;;;;;10.13;6.45;;;7.70;99.90;;;;;;5066553;28;20040;-78
2023/12/29 08:27:06;;;;;;;8.23;6.00;;;7.80;99.90;;;;;;5060947;28;20199;-80
2023/12/29 08:29:54;;;;;;;8.75;5.65;;;7.90;99.90;;;;;;5062701;28;20557;-81
2023/12/29 08:32:45;;;;;;;7.93;5.15;;;8.00;99.90;;;;;;5049444;28;20040;-78
2023/12/29 08:35:46;;;;;;;6.85;5.38;;;8.10;99.90;;;;;;5050976;28;20067;-79
2023/12/29 08:38:40;;;;;;;6.10;4.68;;;8.10;99.90;;;;;;5057019;28;20049;-80
2023/12/29 08:41:49;;;;;;;8.07;4.97;;;8.00;99.90;;;;;;5053047;28;20041;-81
2023/12/29 08:44:55;;;;;;;6.03;4.53;;;8.00;99.90;;;;;;5066117;28;20044;-79
2023/12/29 08:47:56;;;;;;;8.18;4.55;;;8.00;99.90;;;;;;5059965;28;20039;-79
2023/12/29 08:50:46;;;;;;;6.65;4.85;;;8.00;99.90;;;;;;5065285;28;20041;-78
2023/12/29 08:53:35;;;;;;;5.15;4.07;;;8.00;99.90;;;;;;5079905;28;20039;-78
2023/12/29 08:56:52;;;;;;;4.85;4.35;;;8.00;99.90;;;;;;5053733;28;20052;-80
2023/12/29 08:59:51;;;;;;;5.78;4.07;;;8.00;99.90;;;;;;5040652;28;20139;-81
2023/12/29 09:02:40;;;;;;;6.22;4.38;;;8.00;99.90;;;;;;5056826;28;20533;-80
2023/12/29 09:05:33;;;;;;;5.45;4.25;;;8.00;99.90;;;;;;5051937;28;20056;-78
2023/12/29 09:08:21;;;;;;;4.22;3.83;;;8.00;99.90;;;;;;5059356;28;20060;-77
2023/12/29 09:11:10;;;;;;;6.15;4.43;;;8.10;99.90;;;;;;5059006;28;20090;-78
2023/12/29 09:14:00;;;;;;;4.38;3.58;;;8.20;99.90;;;;;;5060530;28;20063;-79
2023/12/29 09:16:51;;;;;;;6.05;3.60;;;8.30;99.90;;;;;;5060145;28;20056;-80
2023/12/29 09:19:56;;;;;;;5.10;4.10;;;8.30;99.90;;;;;;5060015;28;20515;-79
2023/12/29 09:22:56;;;;;;;4.25;3.33;;;8.30;99.90;;;;;;5055343;28;20043;-79
2023/12/29 09:25:46;;;;;;;4.20;3.53;;;8.30;99.90;;;;;;5072830;28;20041;-76
2023/12/29 09:28:36;;;;;;;5.93;3.67;;;8.30;99.90;;;;;;5079204;28;20044;-77
2023/12/29 09:31:23;;;;;;;3.40;3.10;;;8.30;99.90;;;;;;5058760;28;20431;-78
2023/12/29 09:34:18;;;;;;;5.43;3.45;;;8.30;99.90;;;;;;5046186;28;20068;-80
2023/12/29 09:37:06;;;;;;;4.30;3.83;;;8.40;99.90;;;;;;5059244;28;20037;-80
2023/12/29 09:39:54;;;;;;;4.70;3.80;;;8.50;99.90;;;;;;5066217;28;20055;-78
2023/12/29 09:42:48;;;;;;;4.38;3.92;;;8.50;99.90;;;;;;5072293;28;20113;-79
2023/12/29 09:45:41;;;;;;;5.15;4.50;;;8.50;99.90;;;;;;5067706;28;20032;-77
2023/12/29 09:48:31;;;;;;;5.90;4.40;;;8.40;99.90;;;;;;5068826;28;20043;-77
2023/12/29 09:51:23;;;;;;;5.60;3.85;;;8.40;99.90;;;;;;5073862;28;20130;-77
2023/12/29 09:54:12;;;;;;;5.13;3.80;;;8.40;99.90;;;;;;5072128;28;20032;-79
2023/12/29 09:57:05;;;;;;;6.00;3.92;;;8.40;99.90;;;;;;5064870;28;20482;-78
2023/12/29 09:59:55;;;;;;;6.15;4.28;;;8.40;99.90;;;;;;5063665;28;20048;-78
2023/12/29 10:02:43;;;;;;;4.10;3.70;;;8.40;99.90;;;;;;5066260;28;20036;-78
2023/12/29 10:05:31;;;;;;;4.18;3.78;;;8.50;99.90;;;;;;5043645;28;20119;-79
2023/12/29 10:08:27;;;;;;;3.97;3.58;;;8.70;99.90;;;;;;5059870;28;20048;-78
2023/12/29 10:11:20;;;;;;;3.65;3.35;;;9.10;99.90;;;;;;5060664;28;20055;-77
2023/12/29 10:14:34;;;;;;;3.20;2.80;;;9.80;99.90;;;;;;5063884;28;20048;-78
2023/12/29 10:17:46;;;;;;;2.78;2.50;;;10.40;99.90;;;;;;5063540;28;20052;-76
2023/12/29 10:20:46;;;;;;;4.35;2.80;;;11.00;99.90;;;;;;5068160;28;20139;-79
2023/12/29 10:24:18;;;;;;;3.08;2.78;;;10.80;99.90;;;;;;5076882;28;20044;-77
2023/12/29 10:27:06;;;;;;;3.30;2.22;;;10.40;99.90;;;;;;5038568;28;20044;-77
2023/12/29 10:29:55;;;;;;;2.90;2.33;;;10.10;99.90;;;;;;5050612;28;20127;-78
2023/12/29 10:32:43;;;;;;;3.58;2.70;;;10.90;99.90;;;;;;5065562;28;20047;-77
2023/12/29 10:35:35;;;;;;;5.85;2.20;;;11.40;99.90;;;;;;5062521;28;20051;-78
2023/12/29 10:38:29;;;;;;;4.68;2.20;;;11.70;99.90;;;;;;5062532;28;20049;-78
2023/12/29 10:41:19;;;;;;;2.40;2.20;;;11.80;99.90;;;;;;5052821;28;20036;-78
2023/12/29 10:44:40;;;;;;;2.92;2.00;;;12.00;99.90;;;;;;5060272;28;20455;-79
2023/12/29 10:48:23;;;;;;;2.45;1.92;;;12.00;99.90;;;;;;5069562;28;20568;-78
2023/12/29 10:51:32;;;;;;;2.15;1.65;;;12.30;99.90;;;;;;5076433;28;20032;-80
2023/12/29 10:54:31;;;;;;;1.95;1.70;;;12.80;99.90;;;;;;5059162;28;20047;-80
2023/12/29 10:57:32;;;;;;;3.60;2.05;;;12.60;99.90;;;;;;5055383;28;20049;-79
2023/12/29 11:00:35;;;;;;;2.20;1.52;;;12.40;99.90;;;;;;5056980;28;20051;-77
2023/12/29 11:03:38;;;;;;;1.70;1.60;;;12.60;99.90;;;;;;5064404;28;20182;-77
2023/12/29 11:06:55;;;;;;;2.45;1.85;;;12.60;99.90;;;;;;5060148;28;20040;-79
2023/12/29 11:09:51;;;;;;;3.63;2.10;;;12.60;99.90;;;;;;5043208;28;20095;-79
2023/12/29 11:12:56;;;;;;;1.50;1.40;;;12.50;99.90;;;;;;5074691;28;20056;-78
2023/12/29 11:16:01;;;;;;;2.42;1.80;;;13.20;99.90;;;;;;5040116;28;20033;-78
2023/12/29 11:19:05;;;;;;;3.53;2.22;;;13.20;99.90;;;;;;5050988;28;20044;-79
2023/12/29 11:22:02;;;;;;;2.15;1.70;;;13.50;99.90;;;;;;5063081;28;20133;-80
2023/12/29 11:25:00;;;;;;;2.83;1.67;;;13.40;99.90;;;;;;5070955;28;20044;-77
2023/12/29 11:27:49;;;;;;;2.22;1.55;;;13.00;99.90;;;;;;5053910;28;20342;-78
2023/12/29 11:30:40;;;;;;;2.33;1.67;;;13.10;99.90;;;;;;5062418;28;20036;-77
2023/12/29 11:33:39;;;;;;;1.27;1.20;;;13.70;99.90;;;;;;5067750;28;20044;-75
2023/12/29 11:36:35;;;;;;;2.15;1.40;;;13.60;99.90;;;;;;5091830;28;20104;-75
2023/12/29 11:39:29;;;;;;;1.67;1.23;;;13.10;99.90;;;;;;5089271;28;20047;-75
2023/12/29 11:42:27;;;;;;;2.38;1.40;;;12.80;1.00;;;;;;5085573;28;20048;-77
2023/12/29 11:45:28;;;;;;;2.80;1.63;;;12.30;21.60;;;;;;5055767;28;20058;-76
2023/12/29 11:48:58;;;;;;;2.92;1.40;;;12.90;3.00;;;;;;5056136;28;20437;-75
2023/12/29 11:51:51;;;;;;;1.67;1.55;;;13.30;1.00;;;;;;5069814;28;20492;-77
2023/12/29 11:54:38;;;;;;;1.77;1.55;;;13.20;1.00;;;;;;5069086;28;20047;-77
2023/12/29 11:57:32;;;;;;;1.70;1.42;;;13.20;1.00;;;;;;5076380;28;20053;-78
2023/12/29 12:00:43;;;;;;;4.20;2.65;;;12.90;1.00;;;;;;5054698;28;20301;-78
2023/12/29 12:03:31;;;;;;;3.90;3.00;;;12.30;1.00;;;;;;5058137;28;20056;-76
2023/12/29 12:06:38;;;;;;;2.08;1.42;;;12.80;1.00;;;;;;5052943;28;20180;-76
2023/12/29 12:09:26;;;;;;;1.40;1.30;;;13.00;1.00;;;;;;5055650;28;20116;-75
2023/12/29 12:12:14;;;;;;;3.35;1.50;;;13.30;1.00;;;;;;5062481;28;20052;-78
2023/12/29 12:15:02;;;;;;;3.30;1.85;;;12.70;1.00;;;;;;5051501;28;20082;-77
2023/12/29 12:17:52;;;;;;;2.58;1.42;;;12.50;1.00;;;;;;5056706;28;20139;-76
2023/12/29 12:20:40;;;;;;;1.70;1.50;;;12.90;1.00;;;;;;5035137;28;20045;-78
2023/12/29 12:23:32;;;;;;;1.85;1.42;;;12.40;1.00;;;;;;5052669;28;20048;-75
2023/12/29 12:26:23;;;;;;;3.78;1.80;;;12.40;1.00;;;;;;5053288;28;20043;-75
2023/12/29 12:29:13;;;;;;;1.52;1.42;;;11.90;1.00;;;;;;5050648;28;20045;-77
2023/12/29 12:32:00;;;;;;;1.60;1.50;;;11.70;1.00;;;;;;5053087;28;20153;-78
2023/12/29 12:34:48;;;;;;;1.30;1.20;;;12.20;1.00;;;;;;5043413;28;20036;-76
2023/12/29 12:37:35;;;;;;;1.67;1.40;;;12.40;1.00;;;;;;5052592;28;20051;-79
2023/12/29 12:40:28;;;;;;;1.35;1.25;;;12.30;1.00;;;;;;5056270;28;20044;-80
2023/12/29 12:43:19;;;;;;;1.80;1.30;;;12.90;1.00;;;;;;5054881;28;20477;-79
2023/12/29 12:46:10;;;;;;;1.88;1.40;;;13.40;1.00;;;;;;5064655;28;20119;-79
2023/12/29 12:49:03;;;;;;;1.30;1.20;;;13.60;99.90;;;;;;5040243;28;20640;-77
2023/12/29 12:51:54;;;;;;;2.10;1.60;;;13.20;99.90;;;;;;5058514;28;20410;-78
2023/12/29 12:54:42;;;;;;;1.88;1.60;;;12.70;99.90;;;;;;5057085;28;20041;-79
2023/12/29 12:57:37;;;;;;;1.73;1.35;;;12.20;99.90;;;;;;5068194;28;20616;-78
2023/12/29 13:00:26;;;;;;;2.05;1.40;;;12.90;99.90;;;;;;5056371;28;20044;-82
2023/12/29 13:03:25;;;;;;;2.25;1.10;;;13.40;99.90;;;;;;5054530;28;20044;-80
2023/12/29 13:06:12;;;;;;;2.50;1.30;;;14.10;99.90;;;;;;5051943;28;20048;-79
2023/12/29 13:09:05;;;;;;;2.63;1.48;;;14.30;99.90;;;;;;5062121;28;20164;-82
2023/12/29 13:12:11;;;;;;;1.75;1.35;;;14.00;99.90;;;;;;5061087;28;20496;-79
2023/12/29 13:15:08;;;;;;;1.80;1.70;;;14.40;99.90;;;;;;5068769;28;20128;-79
2023/12/29 13:18:01;;;;;;;2.33;1.17;;;14.80;99.90;;;;;;5038452;28;20045;-82
2023/12/29 13:20:50;;;;;;;2.25;1.20;;;15.00;99.90;;;;;;5070642;28;20053;-81
2023/12/29 13:23:38;;;;;;;2.42;1.75;;;14.30;99.90;;;;;;5062441;28;20075;-79
2023/12/29 13:26:29;;;;;;;1.58;1.30;;;13.30;99.90;;;;;;5068063;28;20051;-80
2023/12/29 13:29:16;;;;;;;2.33;1.60;;;12.30;99.90;;;;;;5066040;28;20572;-79
2023/12/29 13:32:10;;;;;;;3.40;1.92;;;12.20;99.90;;;;;;5054675;27;20068;-82
2023/12/29 13:35:50;;;;;;;1.38;1.25;;;12.60;99.90;;;;;;5062940;28;20044;-80
2023/12/29 13:38:57;;;;;;;2.80;1.77;;;13.30;99.90;;;;;;5064728;28;20067;-81
2023/12/29 13:41:45;;;;;;;1.67;1.45;;;12.90;99.90;;;;;;5069750;28;20044;-80
2023/12/29 13:44:38;;;;;;;3.33;1.70;;;12.60;99.90;;;;;;5045754;28;20201;-80
2023/12/29 13:47:28;;;;;;;2.30;1.88;;;12.30;99.90;;;;;;5066177;28;20189;-80
2023/12/29 13:50:21;;;;;;;3.67;1.85;;;11.80;99.90;;;;;;5065307;28;20317;-80
2023/12/29 13:53:18;;;;;;;2.65;1.40;;;11.40;99.90;;;;;;5065655;28;20037;-78
2023/12/29 13:56:10;;;;;;;2.85;1.90;;;11.20;99.90;;;;;;5093301;28;20040;-79
2023/12/29 13:59:04;;;;;;;2.88;1.60;;;11.10;99.90;;;;;;5065421;28;20599;-79
2023/12/29 14:01:55;;;;;;;2.47;2.00;;;11.00;99.90;;;;;;5055110;28;20094;-80
2023/12/29 14:04:44;;;;;;;4.38;2.45;;;11.00;99.90;;;;;;5050108;28;20115;-79
2023/12/29 14:07:32;;;;;;;2.67;1.80;;;11.20;99.90;;;;;;5049081;28;20396;-80
2023/12/29 14:10:22;;;;;;;2.35;2.00;;;11.30;99.90;;;;;;5064939;28;20040;-81
2023/12/29 14:13:17;;;;;;;6.10;2.55;;;11.20;99.90;;;;;;5066214;28;20404;-78
2023/12/29 14:16:06;;;;;;;2.72;1.77;;;11.10;99.90;;;;;;5067949;28;20055;-76
2023/12/29 14:18:56;;;;;;;3.72;2.10;;;11.10;99.90;;;;;;5054358;28;20045;-77
2023/12/29 14:21:55;;;;;;;3.60;2.00;;;11.00;99.90;;;;;;5089057;28;20036;-77
2023/12/29 14:24:43;;;;;;;2.03;1.80;;;11.00;99.90;;;;;;5090283;28;20068;-80
2023/12/29 14:27:32;;;;;;;1.75;1.65;;;11.00;99.90;;;;;;5062040;28;20049;-77
2023/12/29 14:30:19;;;;;;;4.35;2.10;;;11.00;99.90;;;;;;5068904;28;20047;-77
2023/12/29 14:33:07;;;;;;;2.47;1.70;;;11.00;99.90;;;;;;5062195;28;20072;-79
2023/12/29 14:35:56;;;;;;;2.92;1.80;;;10.80;99.90;;;;;;5068547;28;20044;-80
2023/12/29 14:38:44;;;;;;;2.47;1.90;;;10.60;99.90;;;;;;5061668;28;20567;-78
2023/12/29 14:41:32;;;;;;;2.70;1.67;;;10.60;99.90;;;;;;5069842;28;20049;-81
2023/12/29 14:44:21;;;;;;;2.20;1.90;;;10.50;99.90;;;;;;5057077;28;20123;-78
2023/12/29 14:47:08;;;;;;;2.72;1.90;;;10.40;99.90;;;;;;5058458;28;20159;-78
2023/12/29 14:49:57;;;;;;;4.50;2.30;;;10.30;99.90;;;;;;5068557;28;20428;-78
2023/12/29 14:52:47;;;;;;;3.10;2.10;;;10.30;99.90;;;;;;5064014;28;20037;-78
2023/12/29 14:55:37;;;;;;;3.58;1.83;;;10.40;99.90;;;;;;5054256;28;20040;-79
2023/12/29 14:58:25;;;;;;;5.85;2.17;;;10.30;99.90;;;;;;5061585;28;20118;-80
2023/12/29 15:01:12;;;;;;;2.90;2.00;;;10.20;99.90;;;;;;5066097;28;20040;-78
2023/12/29 15:04:01;;;;;;;2.40;2.20;;;10.20;99.90;;;;;;5070170;28;20043;-76
2023/12/29 15:06:48;;;;;;;2.67;2.10;;;10.10;99.90;;;;;;5039933;28;20472;-74
2023/12/29 15:09:38;;;;;;;2.60;1.95;;;9.90;99.90;;;;;;5070530;28;20040;-77
2023/12/29 15:12:31;;;;;;;2.75;1.83;;;9.80;99.90;;;;;;5060684;28;20131;-78
2023/12/29 15:15:20;;;;;;;2.72;1.80;;;9.70;99.90;;;;;;5061317;28;20132;-79
2023/12/29 15:18:33;;;;;;;3.63;1.90;;;9.70;99.90;;;;;;5053781;28;20086;-78
2023/12/29 15:21:33;;;;;;;4.38;2.83;;;9.60;99.90;;;;;;5048525;28;20047;-83
2023/12/29 15:25:06;;;;;;;2.40;2.20;;;9.50;99.90;;;;;;5070454;28;20508;-80
2023/12/29 15:28:43;;;;;;;3.33;2.00;;;9.30;99.90;;;;;;5062182;28;20044;-81
2023/12/29 15:31:34;;;;;;;2.50;2.00;;;9.30;99.90;;;;;;5052151;28;20064;-80
2023/12/29 15:34:24;;;;;;;3.45;2.40;;;9.20;99.90;;;;;;5058619;28;20360;-84